sensor_id;sensor_type;location;lat;lon;timestamp;pressure;altitude;pressure_sealevel;temperature;humidity
57668;BME280;43499;52.366;12.912;2023-08-12T00:00:11;101603.41;;;19.04;81.19
57668;BME280;43499;52.366;12.912;2023-08-12T00:01:13;101596.97;;;19.01;80.59
57668;BME280;43499;52.366;12.912;2023-08-12T00:02:15;101608.66;;;19.03;80.29
57668;BME280;43499;52.366;12.912;2023-08-12T00:03:16;101596.06;;;19.00;80.20
57668;BME280;43499;52.366;12.912;2023-08-12T00:04:17;101609.59;;;19.03;79.98
57668;BME280;43499;52.366;12.912;2023-08-12T00:05:19;101609.59;;;19.03;79.90
57668;BME280;43499;52.366;12.912;2023-08-12T00:06:20;101602.22;;;18.99;79.71
57668;BME280;43499;52.366;12.912;2023-08-12T00:07:21;101609.28;;;18.99;79.81
57668;BME280;43499;52.366;12.912;2023-08-12T00:08:23;101613.78;;;19.00;79.70
57668;BME280;43499;52.366;12.912;2023-08-12T00:09:24;101611.94;;;18.99;79.90
57668;BME280;43499;52.366;12.912;2023-08-12T00:10:25;101609.41;;;19.00;80.10
57668;BME280;43499;52.366;12.912;2023-08-12T00:11:27;101608.38;;;18.98;80.61
57668;BME280;43499;52.366;12.912;2023-08-12T00:12:28;101606.34;;;18.94;80.83
57668;BME280;43499;52.366;12.912;2023-08-12T00:13:30;101610.22;;;18.99;81.20
57668;BME280;43499;52.366;12.912;2023-08-12T00:14:31;101610.22;;;18.99;81.19
57668;BME280;43499;52.366;12.912;2023-08-12T00:15:32;101612.97;;;19.01;81.20
57668;BME280;43499;52.366;12.912;2023-08-12T00:16:33;101601.13;;;18.95;81.09
57668;BME280;43499;52.366;12.912;2023-08-12T00:17:35;101607.56;;;18.99;81.04
57668;BME280;43499;52.366;12.912;2023-08-12T00:18:42;101608.38;;;18.98;81.27
57668;BME280;43499;52.366;12.912;2023-08-12T00:19:44;101611.94;;;18.99;80.83
57668;BME280;43499;52.366;12.912;2023-08-12T00:20:45;101610.03;;;18.96;81.39
57668;BME280;43499;52.366;12.912;2023-08-12T00:21:46;101598.47;;;18.95;81.44
57668;BME280;43499;52.366;12.912;2023-08-12T00:22:48;101604.16;;;19.02;81.42
57668;BME280;43499;52.366;12.912;2023-08-12T00:23:49;101590.34;;;18.94;81.52
57668;BME280;43499;52.366;12.912;2023-08-12T00:24:51;101594.97;;;18.96;81.38
57668;BME280;43499;52.366;12.912;2023-08-12T00:25:57;101604.16;;;19.02;81.27
57668;BME280;43499;52.366;12.912;2023-08-12T00:26:59;101607.63;;;19.01;81.10
57668;BME280;43499;52.366;12.912;2023-08-12T00:28:00;101597.91;;;19.01;81.56
57668;BME280;43499;52.366;12.912;2023-08-12T00:29:01;101603.25;;;19.01;81.61
57668;BME280;43499;52.366;12.912;2023-08-12T00:30:04;101601.41;;;19.00;81.32
57668;BME280;43499;52.366;12.912;2023-08-12T00:31:07;101598.63;;;18.99;81.57
57668;BME280;43499;52.366;12.912;2023-08-12T00:32:09;101592.59;;;19.01;81.17
57668;BME280;43499;52.366;12.912;2023-08-12T00:33:10;101602.22;;;18.99;80.62
57668;BME280;43499;52.366;12.912;2023-08-12T00:34:11;101587.50;;;18.91;80.84
57668;BME280;43499;52.366;12.912;2023-08-12T00:35:12;101593.81;;;18.93;81.10
57668;BME280;43499;52.366;12.912;2023-08-12T00:36:13;101588.31;;;18.90;81.03
57668;BME280;43499;52.366;12.912;2023-08-12T00:37:15;101592.91;;;18.92;81.28
57668;BME280;43499;52.366;12.912;2023-08-12T00:38:16;101580.94;;;18.86;80.34
57668;BME280;43499;52.366;12.912;2023-08-12T00:39:17;101579.78;;;18.80;80.01
57668;BME280;43499;52.366;12.912;2023-08-12T00:40:18;101576.72;;;18.74;80.02
57668;BME280;43499;52.366;12.912;2023-08-12T00:41:19;101584.06;;;18.78;80.13
57668;BME280;43499;52.366;12.912;2023-08-12T00:42:21;101583.97;;;18.77;80.18
57668;BME280;43499;52.366;12.912;2023-08-12T00:43:22;101582.03;;;18.74;80.10
57668;BME280;43499;52.366;12.912;2023-08-12T00:44:24;101576.34;;;18.68;80.60
57668;BME280;43499;52.366;12.912;2023-08-12T00:45:25;101581.13;;;18.74;80.66
57668;BME280;43499;52.366;12.912;2023-08-12T00:46:26;101570.38;;;18.72;80.46
57668;BME280;43499;52.366;12.912;2023-08-12T00:47:29;101573.13;;;18.74;80.68
57668;BME280;43499;52.366;12.912;2023-08-12T00:48:31;101562.28;;;18.71;81.11
57668;BME280;43499;52.366;12.912;2023-08-12T00:49:33;101568.53;;;18.71;80.95
57668;BME280;43499;52.366;12.912;2023-08-12T00:50:36;101567.69;;;18.72;80.92
57668;BME280;43499;52.366;12.912;2023-08-12T00:51:39;101566.53;;;18.67;80.78
57668;BME280;43499;52.366;12.912;2023-08-12T00:52:42;101559.16;;;18.63;80.49
57668;BME280;43499;52.366;12.912;2023-08-12T00:53:46;101559.44;;;18.68;80.48
57668;BME280;43499;52.366;12.912;2023-08-12T00:54:47;101559.22;;;18.64;80.46
57668;BME280;43499;52.366;12.912;2023-08-12T00:55:48;101542.00;;;18.58;80.77
57668;BME280;43499;52.366;12.912;2023-08-12T00:56:50;101561.19;;;18.67;80.98
57668;BME280;43499;52.366;12.912;2023-08-12T00:57:51;101546.47;;;18.59;80.65
57668;BME280;43499;52.366;12.912;2023-08-12T00:58:53;101557.44;;;18.63;80.86
57668;BME280;43499;52.366;12.912;2023-08-12T00:59:55;101562.63;;;18.62;80.29
57668;BME280;43499;52.366;12.912;2023-08-12T01:00:57;101558.88;;;18.58;80.65
57668;BME280;43499;52.366;12.912;2023-08-12T01:01:58;101565.28;;;18.62;80.76
57668;BME280;43499;52.366;12.912;2023-08-12T01:03:00;101558.03;;;18.59;80.68
57668;BME280;43499;52.366;12.912;2023-08-12T01:04:01;101557.75;;;18.55;80.62
57668;BME280;43499;52.366;12.912;2023-08-12T01:05:03;101557.75;;;18.55;81.00
57668;BME280;43499;52.366;12.912;2023-08-12T01:06:04;101550.50;;;18.52;81.24
57668;BME280;43499;52.366;12.912;2023-08-12T01:07:06;101565.09;;;18.59;81.54
57668;BME280;43499;52.366;12.912;2023-08-12T01:08:07;101539.47;;;18.46;81.75
57668;BME280;43499;52.366;12.912;2023-08-12T01:09:09;101556.22;;;18.58;81.79
57668;BME280;43499;52.366;12.912;2023-08-12T01:10:10;101547.00;;;18.53;81.62
57668;BME280;43499;52.366;12.912;2023-08-12T01:11:33;101554.16;;;18.54;81.12
57668;BME280;43499;52.366;12.912;2023-08-12T01:12:50;101544.16;;;18.50;81.07
57668;BME280;43499;52.366;12.912;2023-08-12T01:15:08;101546.84;;;18.50;80.71
57668;BME280;43499;52.366;12.912;2023-08-12T01:16:13;101539.47;;;18.46;80.51
57668;BME280;43499;52.366;12.912;2023-08-12T01:17:15;101539.66;;;18.49;80.50
57668;BME280;43499;52.366;12.912;2023-08-12T01:18:17;101540.38;;;18.46;80.76
57668;BME280;43499;52.366;12.912;2023-08-12T01:19:38;101533.88;;;18.41;80.55
57668;BME280;43499;52.366;12.912;2023-08-12T01:20:40;101539.19;;;18.41;80.98
57668;BME280;43499;52.366;12.912;2023-08-12T01:21:43;101545.53;;;18.43;81.00
57668;BME280;43499;52.366;12.912;2023-08-12T01:22:45;101541.84;;;18.41;81.02
57668;BME280;43499;52.366;12.912;2023-08-12T01:23:47;101537.44;;;18.42;81.24
57668;BME280;43499;52.366;12.912;2023-08-12T01:24:51;101535.50;;;18.39;80.97
57668;BME280;43499;52.366;12.912;2023-08-12T01:25:52;101542.88;;;18.43;80.88
57668;BME280;43499;52.366;12.912;2023-08-12T01:26:53;101531.19;;;18.41;81.80
57668;BME280;43499;52.366;12.912;2023-08-12T01:27:56;101532.09;;;18.42;81.46
57668;BME280;43499;52.366;12.912;2023-08-12T01:28:57;101513.66;;;18.30;81.66
57668;BME280;43499;52.366;12.912;2023-08-12T01:29:59;101534.97;;;18.45;81.26
57668;BME280;43499;52.366;12.912;2023-08-12T01:31:18;101533.94;;;18.43;81.25
57668;BME280;43499;52.366;12.912;2023-08-12T01:32:38;101534.88;;;18.43;82.02
57668;BME280;43499;52.366;12.912;2023-08-12T01:33:46;101525.78;;;18.40;81.40
57668;BME280;43499;52.366;12.912;2023-08-12T01:36:21;101526.41;;;18.35;82.69
57668;BME280;43499;52.366;12.912;2023-08-12T01:37:26;101529.06;;;18.35;82.93
57668;BME280;43499;52.366;12.912;2023-08-12T01:38:28;101528.25;;;18.37;82.57
57668;BME280;43499;52.366;12.912;2023-08-12T01:39:32;101530.91;;;18.37;82.69
57668;BME280;43499;52.366;12.912;2023-08-12T01:40:35;101528.25;;;18.37;82.64
57668;BME280;43499;52.366;12.912;2023-08-12T01:41:37;101520.06;;;18.33;82.22
57668;BME280;43499;52.366;12.912;2023-08-12T01:42:40;101515.69;;;18.34;82.17
57668;BME280;43499;52.366;12.912;2023-08-12T01:43:42;101515.69;;;18.34;82.47
57668;BME280;43499;52.366;12.912;2023-08-12T01:44:43;101510.16;;;18.31;82.24
57668;BME280;43499;52.366;12.912;2023-08-12T01:45:44;101509.06;;;18.27;82.19
57668;BME280;43499;52.366;12.912;2023-08-12T01:46:46;101514.53;;;18.30;81.74
57668;BME280;43499;52.366;12.912;2023-08-12T01:47:47;101510.03;;;18.29;81.59
57668;BME280;43499;52.366;12.912;2023-08-12T01:48:51;101504.56;;;18.26;81.42
57668;BME280;43499;52.366;12.912;2023-08-12T01:49:52;101510.16;;;18.31;81.25
57668;BME280;43499;52.366;12.912;2023-08-12T01:50:53;101507.22;;;18.26;81.23
57668;BME280;43499;52.366;12.912;2023-08-12T01:51:57;101508.53;;;18.33;81.40
57668;BME280;43499;52.366;12.912;2023-08-12T01:52:58;101499.03;;;18.23;81.30
57668;BME280;43499;52.366;12.912;2023-08-12T01:53:59;101515.38;;;18.29;81.61
57668;BME280;43499;52.366;12.912;2023-08-12T01:55:00;101509.13;;;18.29;81.84
57668;BME280;43499;52.366;12.912;2023-08-12T01:56:02;101505.47;;;18.27;81.89
57668;BME280;43499;52.366;12.912;2023-08-12T01:57:04;101516.38;;;18.31;82.36
57668;BME280;43499;52.366;12.912;2023-08-12T01:58:06;101507.38;;;18.29;82.40
57668;BME280;43499;52.366;12.912;2023-08-12T01:59:07;101510.16;;;18.31;82.65
57668;BME280;43499;52.366;12.912;2023-08-12T02:00:09;101499.41;;;18.29;82.67
57668;BME280;43499;52.366;12.912;2023-08-12T02:01:19;101507.50;;;18.31;82.83
57668;BME280;43499;52.366;12.912;2023-08-12T02:02:20;101514.00;;;18.36;82.88
57668;BME280;43499;52.366;12.912;2023-08-12T02:03:21;101497.69;;;18.30;82.78
57668;BME280;43499;52.366;12.912;2023-08-12T02:04:23;101504.19;;;18.35;82.56
57668;BME280;43499;52.366;12.912;2023-08-12T02:05:24;101498.78;;;18.33;82.64
57668;BME280;43499;52.366;12.912;2023-08-12T02:06:25;101491.72;;;18.34;82.50
57668;BME280;43499;52.366;12.912;2023-08-12T02:07:26;101479.66;;;18.26;82.53
57668;BME280;43499;52.366;12.912;2023-08-12T02:08:27;101498.88;;;18.35;82.44
57668;BME280;43499;52.366;12.912;2023-08-12T02:09:28;101499.72;;;18.34;82.33
57668;BME280;43499;52.366;12.912;2023-08-12T02:10:30;101503.47;;;18.38;82.40
57668;BME280;43499;52.366;12.912;2023-08-12T02:11:31;101489.97;;;18.34;82.12
57668;BME280;43499;52.366;12.912;2023-08-12T02:12:32;101492.72;;;18.36;82.19
57668;BME280;43499;52.366;12.912;2023-08-12T02:13:33;101499.06;;;18.38;82.67
57668;BME280;43499;52.366;12.912;2023-08-12T02:14:35;101495.56;;;18.39;82.68
57668;BME280;43499;52.366;12.912;2023-08-12T02:15:37;101486.41;;;18.34;82.23
57668;BME280;43499;52.366;12.912;2023-08-12T02:16:39;101499.19;;;18.40;82.20
57668;BME280;43499;52.366;12.912;2023-08-12T02:17:40;101494.56;;;18.37;81.91
57668;BME280;43499;52.366;12.912;2023-08-12T02:18:42;101502.38;;;18.34;81.69
57668;BME280;43499;52.366;12.912;2023-08-12T02:19:43;101478.75;;;18.25;81.55
57668;BME280;43499;52.366;12.912;2023-08-12T02:20:47;101493.38;;;18.32;81.84
57668;BME280;43499;52.366;12.912;2023-08-12T02:21:48;101494.47;;;18.35;81.80
57668;BME280;43499;52.366;12.912;2023-08-12T02:22:50;101490.88;;;18.35;81.82
57668;BME280;43499;52.366;12.912;2023-08-12T02:23:51;101485.47;;;18.33;82.29
57668;BME280;43499;52.366;12.912;2023-08-12T02:24:52;101487.31;;;18.34;81.98
57668;BME280;43499;52.366;12.912;2023-08-12T02:25:55;101471.88;;;18.29;81.96
57668;BME280;43499;52.366;12.912;2023-08-12T02:26:56;101486.50;;;18.35;82.46
57668;BME280;43499;52.366;12.912;2023-08-12T02:27:58;101475.84;;;18.35;82.26
57668;BME280;43499;52.366;12.912;2023-08-12T02:28:59;101475.75;;;18.34;82.27
57668;BME280;43499;52.366;12.912;2023-08-12T02:30:00;101482.81;;;18.33;82.27
57668;BME280;43499;52.366;12.912;2023-08-12T02:31:02;101472.09;;;18.32;82.44
57668;BME280;43499;52.366;12.912;2023-08-12T02:32:03;101477.28;;;18.30;82.47
57668;BME280;43499;52.366;12.912;2023-08-12T02:33:05;101462.88;;;18.27;81.96
57668;BME280;43499;52.366;12.912;2023-08-12T02:34:06;101472.72;;;18.28;81.74
57668;BME280;43499;52.366;12.912;2023-08-12T02:35:08;101473.66;;;18.28;81.88
57668;BME280;43499;52.366;12.912;2023-08-12T02:36:09;101485.28;;;18.30;82.03
57668;BME280;43499;52.366;12.912;2023-08-12T02:37:10;101442.59;;;18.14;82.25
57668;BME280;43499;52.366;12.912;2023-08-12T02:38:13;101467.31;;;18.26;82.07
57668;BME280;43499;52.366;12.912;2023-08-12T02:39:14;101474.63;;;18.30;82.45
57668;BME280;43499;52.366;12.912;2023-08-12T02:40:15;101477.50;;;18.33;82.60
57668;BME280;43499;52.366;12.912;2023-08-12T02:41:17;101460.97;;;18.24;83.15
57668;BME280;43499;52.366;12.912;2023-08-12T02:42:18;101466.47;;;18.27;82.96
57668;BME280;43499;52.366;12.912;2023-08-12T02:43:19;101470.03;;;18.28;82.61
57668;BME280;43499;52.366;12.912;2023-08-12T02:44:20;101469.31;;;18.30;83.04
57668;BME280;43499;52.366;12.912;2023-08-12T02:45:21;101465.75;;;18.30;82.91
57668;BME280;43499;52.366;12.912;2023-08-12T02:46:22;101456.66;;;18.26;82.71
57668;BME280;43499;52.366;12.912;2023-08-12T02:47:27;101457.56;;;18.27;82.46
57668;BME280;43499;52.366;12.912;2023-08-12T02:48:28;101446.84;;;18.25;82.58
57668;BME280;43499;52.366;12.912;2023-08-12T02:49:29;101446.56;;;18.21;82.71
57668;BME280;43499;52.366;12.912;2023-08-12T02:50:31;101459.31;;;18.26;82.73
57668;BME280;43499;52.366;12.912;2023-08-12T02:51:32;101452.91;;;18.23;82.65
57668;BME280;43499;52.366;12.912;2023-08-12T02:52:33;101453.78;;;18.23;82.79
57668;BME280;43499;52.366;12.912;2023-08-12T02:53:34;101444.44;;;18.15;83.00
57668;BME280;43499;52.366;12.912;2023-08-12T02:54:36;101455.56;;;18.23;82.85
57668;BME280;43499;52.366;12.912;2023-08-12T02:55:37;101455.44;;;18.21;82.87
57668;BME280;43499;52.366;12.912;2023-08-12T02:56:39;101458.91;;;18.20;82.54
57668;BME280;43499;52.366;12.912;2023-08-12T02:57:40;101452.69;;;18.19;82.51
57668;BME280;43499;52.366;12.912;2023-08-12T02:58:42;101440.94;;;18.16;82.82
57668;BME280;43499;52.366;12.912;2023-08-12T02:59:43;101449.91;;;18.18;82.50
57668;BME280;43499;52.366;12.912;2023-08-12T03:00:44;101446.34;;;18.17;82.50
57668;BME280;43499;52.366;12.912;2023-08-12T03:01:45;101447.16;;;18.16;82.73
57668;BME280;43499;52.366;12.912;2023-08-12T03:02:46;101435.34;;;18.11;81.87
57668;BME280;43499;52.366;12.912;2023-08-12T03:03:48;101442.59;;;18.14;81.63
57668;BME280;43499;52.366;12.912;2023-08-12T03:04:49;101437.06;;;18.11;81.66
57668;BME280;43499;52.366;12.912;2023-08-12T03:05:50;101428.88;;;18.08;81.29
57668;BME280;43499;52.366;12.912;2023-08-12T03:06:51;101424.09;;;18.02;81.29
57668;BME280;43499;52.366;12.912;2023-08-12T03:07:52;101435.03;;;18.07;81.26
57668;BME280;43499;52.366;12.912;2023-08-12T03:08:53;101424.22;;;18.03;81.28
57668;BME280;43499;52.366;12.912;2023-08-12T03:09:54;101443.13;;;18.08;80.87
57668;BME280;43499;52.366;12.912;2023-08-12T03:11:00;101434.94;;;18.05;81.28
57668;BME280;43499;52.366;12.912;2023-08-12T03:12:01;101430.25;;;18.01;81.30
57668;BME280;43499;52.366;12.912;2023-08-12T03:13:04;101441.00;;;18.02;81.46
57668;BME280;43499;52.366;12.912;2023-08-12T03:14:05;101436.50;;;18.01;82.00
57668;BME280;43499;52.366;12.912;2023-08-12T03:15:07;101443.56;;;18.01;82.37
57668;BME280;43499;52.366;12.912;2023-08-12T03:16:12;101439.78;;;17.97;82.35
57668;BME280;43499;52.366;12.912;2023-08-12T03:17:17;101432.41;;;17.93;82.28
57668;BME280;43499;52.366;12.912;2023-08-12T03:18:18;101431.41;;;17.91;82.35
57668;BME280;43499;52.366;12.912;2023-08-12T03:19:20;101442.44;;;17.97;82.43
57668;BME280;43499;52.366;12.912;2023-08-12T03:20:21;101439.91;;;17.99;83.21
57668;BME280;43499;52.366;12.912;2023-08-12T03:21:22;101411.41;;;17.83;83.03
57668;BME280;43499;52.366;12.912;2023-08-12T03:22:26;101432.41;;;17.93;83.48
57668;BME280;43499;52.366;12.912;2023-08-12T03:23:28;101431.41;;;17.91;84.21
57668;BME280;43499;52.366;12.912;2023-08-12T03:24:30;101422.94;;;17.83;84.13
57668;BME280;43499;52.366;12.912;2023-08-12T03:25:32;101412.31;;;17.83;84.48
57668;BME280;43499;52.366;12.912;2023-08-12T03:26:33;101415.78;;;17.82;84.41
57668;BME280;43499;52.366;12.912;2023-08-12T03:27:34;101418.53;;;17.84;84.13
57668;BME280;43499;52.366;12.912;2023-08-12T03:28:36;101412.63;;;17.74;84.75
57668;BME280;43499;52.366;12.912;2023-08-12T03:29:37;101409.06;;;17.74;84.02
57668;BME280;43499;52.366;12.912;2023-08-12T03:30:38;101420.81;;;17.78;84.66
57668;BME280;43499;52.366;12.912;2023-08-12T03:31:40;101425.31;;;17.79;84.69
57668;BME280;43499;52.366;12.912;2023-08-12T03:32:42;101426.13;;;17.78;85.05
57668;BME280;43499;52.366;12.912;2023-08-12T03:33:43;101413.56;;;17.75;85.31
57668;BME280;43499;52.366;12.912;2023-08-12T03:34:44;101425.94;;;17.74;85.30
57668;BME280;43499;52.366;12.912;2023-08-12T03:35:50;101418.47;;;17.69;85.61
57668;BME280;43499;52.366;12.912;2023-08-12T03:36:51;101417.78;;;17.71;85.96
57668;BME280;43499;52.366;12.912;2023-08-12T03:37:54;101422.06;;;17.69;85.91
57668;BME280;43499;52.366;12.912;2023-08-12T03:38:56;101425.94;;;17.74;85.22
57668;BME280;43499;52.366;12.912;2023-08-12T03:40:01;101426.88;;;17.75;85.37
57668;BME280;43499;52.366;12.912;2023-08-12T03:41:03;101413.91;;;17.66;85.06
57668;BME280;43499;52.366;12.912;2023-08-12T03:42:06;101425.84;;;17.73;85.07
57668;BME280;43499;52.366;12.912;2023-08-12T03:43:07;101425.09;;;17.76;85.85
57668;BME280;43499;52.366;12.912;2023-08-12T03:44:08;101423.09;;;17.71;85.81
57668;BME280;43499;52.366;12.912;2023-08-12T03:45:10;101416.09;;;17.73;85.37
57668;BME280;43499;52.366;12.912;2023-08-12T03:46:11;101430.09;;;17.84;85.55
57668;BME280;43499;52.366;12.912;2023-08-12T03:47:13;101427.34;;;17.83;85.13
57668;BME280;43499;52.366;12.912;2023-08-12T03:48:15;101427.44;;;17.84;86.66
57668;BME280;43499;52.366;12.912;2023-08-12T03:49:16;101429.38;;;17.87;86.93
57668;BME280;43499;52.366;12.912;2023-08-12T03:50:18;101421.31;;;17.85;86.50
57668;BME280;43499;52.366;12.912;2023-08-12T03:51:20;101422.03;;;17.83;85.74
57668;BME280;43499;52.366;12.912;2023-08-12T03:52:21;101431.19;;;17.88;85.86
57668;BME280;43499;52.366;12.912;2023-08-12T03:53:22;101425.88;;;17.88;86.44
57668;BME280;43499;52.366;12.912;2023-08-12T03:54:24;101431.19;;;17.88;86.59
57668;BME280;43499;52.366;12.912;2023-08-12T03:55:25;101425.88;;;17.88;85.83
57668;BME280;43499;52.366;12.912;2023-08-12T03:56:26;101424.88;;;17.86;84.78
57668;BME280;43499;52.366;12.912;2023-08-12T03:57:27;101418.34;;;17.81;83.58
57668;BME280;43499;52.366;12.912;2023-08-12T03:58:28;101411.94;;;17.77;83.80
57668;BME280;43499;52.366;12.912;2023-08-12T03:59:30;101416.50;;;17.80;83.63
57668;BME280;43499;52.366;12.912;2023-08-12T04:00:32;101414.69;;;17.79;83.51
57668;BME280;43499;52.366;12.912;2023-08-12T04:01:35;101409.16;;;17.76;83.18
57668;BME280;43499;52.366;12.912;2023-08-12T04:02:36;101406.50;;;17.76;83.02
57668;BME280;43499;52.366;12.912;2023-08-12T04:03:37;101400.16;;;17.73;82.84
57668;BME280;43499;52.366;12.912;2023-08-12T04:04:38;101404.56;;;17.73;83.13
57668;BME280;43499;52.366;12.912;2023-08-12T04:05:50;101401.72;;;17.70;82.85
57668;BME280;43499;52.366;12.912;2023-08-12T04:06:53;101404.56;;;17.73;82.63
57668;BME280;43499;52.366;12.912;2023-08-12T04:07:54;101409.28;;;17.77;82.50
57668;BME280;43499;52.366;12.912;2023-08-12T04:08:55;101400.16;;;17.73;82.45
57668;BME280;43499;52.366;12.912;2023-08-12T04:09:57;101402.19;;;17.78;82.62
57668;BME280;43499;52.366;12.912;2023-08-12T04:10:58;101411.19;;;17.80;83.16
57668;BME280;43499;52.366;12.912;2023-08-12T04:12:00;101411.47;;;17.84;82.30
57668;BME280;43499;52.366;12.912;2023-08-12T04:13:01;101408.91;;;17.86;81.97
57668;BME280;43499;52.366;12.912;2023-08-12T04:14:02;101385.22;;;17.76;81.99
57668;BME280;43499;52.366;12.912;2023-08-12T04:15:03;101407.25;;;17.88;82.06
57668;BME280;43499;52.366;12.912;2023-08-12T04:16:05;101397.44;;;17.87;82.16
57668;BME280;43499;52.366;12.912;2023-08-12T04:17:07;101404.00;;;17.92;82.10
57668;BME280;43499;52.366;12.912;2023-08-12T04:18:08;101404.88;;;17.93;82.09
57668;BME280;43499;52.366;12.912;2023-08-12T04:19:09;101406.97;;;17.97;82.35
57668;BME280;43499;52.366;12.912;2023-08-12T04:20:11;101407.16;;;18.00;81.95
57668;BME280;43499;52.366;12.912;2023-08-12T04:21:12;101390.50;;;17.89;81.53
57668;BME280;43499;52.366;12.912;2023-08-12T04:22:13;101407.88;;;17.97;81.42
57668;BME280;43499;52.366;12.912;2023-08-12T04:23:15;101399.88;;;17.97;81.46
57668;BME280;43499;52.366;12.912;2023-08-12T04:24:16;101384.16;;;17.87;82.15
57668;BME280;43499;52.366;12.912;2023-08-12T04:25:17;101392.69;;;17.96;81.82
57668;BME280;43499;52.366;12.912;2023-08-12T04:26:18;101395.78;;;18.02;82.22
57668;BME280;43499;52.366;12.912;2023-08-12T04:27:20;101409.56;;;18.10;82.05
57668;BME280;43499;52.366;12.912;2023-08-12T04:28:21;101405.22;;;18.12;82.40
57668;BME280;43499;52.366;12.912;2023-08-12T04:29:24;101391.03;;;18.12;82.03
57668;BME280;43499;52.366;12.912;2023-08-12T04:30:25;101396.53;;;18.15;82.66
57668;BME280;43499;52.366;12.912;2023-08-12T04:31:27;101395.16;;;18.22;82.12
57668;BME280;43499;52.366;12.912;2023-08-12T04:32:28;101394.63;;;18.27;81.60
57668;BME280;43499;52.366;12.912;2023-08-12T04:33:29;101383.97;;;18.27;81.01
57668;BME280;43499;52.366;12.912;2023-08-12T04:34:31;101394.16;;;18.34;80.98
57668;BME280;43499;52.366;12.912;2023-08-12T04:35:32;101389.09;;;18.39;80.92
57668;BME280;43499;52.366;12.912;2023-08-12T04:36:34;101383.88;;;18.56;80.99
57668;BME280;43499;52.366;12.912;2023-08-12T04:37:37;101388.94;;;18.66;80.18
57668;BME280;43499;52.366;12.912;2023-08-12T04:38:39;101381.38;;;18.74;79.13
57668;BME280;43499;52.366;12.912;2023-08-12T04:39:43;101382.38;;;18.91;78.33
57668;BME280;43499;52.366;12.912;2023-08-12T04:40:45;101392.34;;;19.10;77.82
57668;BME280;43499;52.366;12.912;2023-08-12T04:41:47;101392.22;;;19.23;77.49
57668;BME280;43499;52.366;12.912;2023-08-12T04:42:49;101384.72;;;19.33;76.88
57668;BME280;43499;52.366;12.912;2023-08-12T04:43:51;101373.50;;;19.38;76.13
57668;BME280;43499;52.366;12.912;2023-08-12T04:44:53;101385.19;;;19.57;75.78
57668;BME280;43499;52.366;12.912;2023-08-12T04:45:54;101379.28;;;19.63;75.16
57668;BME280;43499;52.366;12.912;2023-08-12T04:46:55;101369.34;;;19.77;74.22
57668;BME280;43499;52.366;12.912;2023-08-12T04:47:57;101388.72;;;19.89;73.72
57668;BME280;43499;52.366;12.912;2023-08-12T04:48:59;101385.88;;;19.86;74.09
57668;BME280;43499;52.366;12.912;2023-08-12T04:50:00;101384.31;;;19.90;73.39
57668;BME280;43499;52.366;12.912;2023-08-12T04:51:02;101375.03;;;19.99;72.97
57668;BME280;43499;52.366;12.912;2023-08-12T04:52:04;101384.94;;;20.18;72.73
57668;BME280;43499;52.366;12.912;2023-08-12T04:53:06;101391.53;;;20.25;71.66
57668;BME280;43499;52.366;12.912;2023-08-12T04:54:07;101370.75;;;20.19;72.30
57668;BME280;43499;52.366;12.912;2023-08-12T04:55:09;101378.84;;;20.21;72.09
57668;BME280;43499;52.366;12.912;2023-08-12T04:56:13;101383.69;;;20.28;72.55
57668;BME280;43499;52.366;12.912;2023-08-12T04:57:15;101378.41;;;20.30;72.58
57668;BME280;43499;52.366;12.912;2023-08-12T04:58:16;101377.56;;;20.31;73.16
57668;BME280;43499;52.366;12.912;2023-08-12T04:59:17;101374.38;;;20.38;72.49
57668;BME280;43499;52.366;12.912;2023-08-12T05:00:20;101365.63;;;20.41;72.63
57668;BME280;43499;52.366;12.912;2023-08-12T05:01:21;101356.25;;;20.49;72.85
57668;BME280;43499;52.366;12.912;2023-08-12T05:02:23;101370.13;;;20.60;72.08
57668;BME280;43499;52.366;12.912;2023-08-12T05:03:24;101366.63;;;20.61;71.67
57668;BME280;43499;52.366;12.912;2023-08-12T05:04:27;101347.25;;;20.65;72.03
57668;BME280;43499;52.366;12.912;2023-08-12T05:05:28;101356.13;;;20.82;71.72
57668;BME280;43499;52.366;12.912;2023-08-12T05:06:30;101361.41;;;20.99;71.40
57668;BME280;43499;52.366;12.912;2023-08-12T05:07:31;101358.41;;;21.10;70.96
57668;BME280;43499;52.366;12.912;2023-08-12T05:08:35;101358.84;;;21.20;70.71
57668;BME280;43499;52.366;12.912;2023-08-12T05:09:36;101357.53;;;21.30;69.95
57668;BME280;43499;52.366;12.912;2023-08-12T05:10:37;101361.44;;;21.18;68.66
57668;BME280;43499;52.366;12.912;2023-08-12T05:11:38;101365.34;;;21.25;68.74
57668;BME280;43499;52.366;12.912;2023-08-12T05:12:39;101361.50;;;21.20;68.99
57668;BME280;43499;52.366;12.912;2023-08-12T05:13:40;101370.00;;;21.11;69.88
57668;BME280;43499;52.366;12.912;2023-08-12T05:14:42;101362.91;;;20.93;69.44
57668;BME280;43499;52.366;12.912;2023-08-12T05:15:47;101370.63;;;20.69;70.00
57668;BME280;43499;52.366;12.912;2023-08-12T05:16:49;101350.44;;;20.40;70.98
57668;BME280;43499;52.366;12.912;2023-08-12T05:17:50;101357.75;;;20.44;71.53
57668;BME280;43499;52.366;12.912;2023-08-12T05:18:54;101355.84;;;20.41;72.07
57668;BME280;43499;52.366;12.912;2023-08-12T05:19:55;101354.00;;;20.40;72.50
57668;BME280;43499;52.366;12.912;2023-08-12T05:20:57;101364.63;;;20.39;71.78
57668;BME280;43499;52.366;12.912;2023-08-12T05:22:00;101356.50;;;20.37;72.26
57668;BME280;43499;52.366;12.912;2023-08-12T05:23:02;101359.34;;;20.40;71.92